createdAt,value
2023-03-28T00:02:29.308Z,88.13
2023-03-28T00:05:00.137Z,88.19
2023-03-28T00:07:29.756Z,88.33
2023-03-28T00:09:59.197Z,88.52
2023-03-28T00:12:29.959Z,88.55
2023-03-28T00:15:00.837Z,88.66
2023-03-28T00:17:31.499Z,88.79
2023-03-28T00:20:02.788Z,88.95
2023-03-28T00:22:31.194Z,89.15
2023-03-28T00:25:01.224Z,89.20
2023-03-28T00:27:30.301Z,89.33
2023-03-28T00:29:58.841Z,89.43
2023-03-28T00:32:27.451Z,89.57
2023-03-28T00:34:56.289Z,89.66
2023-03-28T00:37:25.605Z,89.74
2023-03-28T00:39:54.019Z,90.00
2023-03-28T00:42:24.926Z,90.24
2023-03-28T00:44:54.693Z,90.44
2023-03-28T00:47:33.652Z,90.62
2023-03-28T00:50:07.052Z,90.82
2023-03-28T00:52:39.967Z,90.89
2023-03-28T00:55:14.473Z,90.94
2023-03-28T00:57:45.009Z,90.96
2023-03-28T01:00:14.351Z,91.13
2023-03-28T01:02:45.918Z,91.17
2023-03-28T01:05:14.993Z,91.23
2023-03-28T01:07:46.329Z,91.21
2023-03-28T01:10:17.141Z,91.13
2023-03-28T01:12:47.216Z,91.15
2023-03-28T01:15:15.723Z,91.20
2023-03-28T01:17:48.267Z,91.27
2023-03-28T01:20:27.014Z,91.32
2023-03-28T01:23:11.658Z,91.45
2023-03-28T01:26:06.572Z,91.59
2023-03-28T01:31:44.990Z,91.79
2023-03-28T01:34:40.876Z,91.86
2023-03-28T01:37:26.322Z,91.93
2023-03-28T01:40:06.041Z,92.06
2023-03-28T01:42:42.136Z,92.18
2023-03-28T01:45:15.690Z,92.34
2023-03-28T01:47:50.854Z,92.43
2023-03-28T01:50:27.431Z,92.57
2023-03-28T01:53:00.510Z,92.61
2023-03-28T01:55:31.931Z,92.63
2023-03-28T01:58:16.043Z,92.61
2023-03-28T02:00:48.077Z,92.60
2023-03-28T02:03:19.794Z,92.56
2023-03-28T02:05:48.595Z,92.50
2023-03-28T02:08:18.797Z,92.45
2023-03-28T02:10:50.246Z,92.37
2023-03-28T02:13:20.359Z,92.30
2023-03-28T02:15:52.621Z,92.25
2023-03-28T02:18:24.998Z,92.17
2023-03-28T02:20:54.153Z,91.97
2023-03-28T02:23:26.230Z,91.89
2023-03-28T02:25:55.155Z,91.80
2023-03-28T02:28:24.282Z,91.69
2023-03-28T02:30:53.551Z,91.58
2023-03-28T02:33:35.051Z,91.46
2023-03-28T02:36:11.885Z,91.38
2023-03-28T02:38:48.703Z,91.27
2023-03-28T02:41:24.517Z,91.12
2023-03-28T02:44:00.742Z,91.03
2023-03-28T02:46:30.701Z,90.98
2023-03-28T02:49:18.531Z,90.87
2023-03-28T02:51:51.576Z,90.74
2023-03-28T02:54:31.094Z,90.62
2023-03-28T02:57:08.206Z,90.53
2023-03-28T02:59:43.345Z,90.51
2023-03-28T03:02:17.917Z,90.48
2023-03-28T03:04:47.074Z,90.50
2023-03-28T03:07:17.980Z,90.53
2023-03-28T03:09:47.477Z,90.59
2023-03-28T03:12:15.638Z,90.69
2023-03-28T03:14:45.009Z,90.78
2023-03-28T03:17:13.414Z,90.81
2023-03-28T03:19:43.640Z,90.82
2023-03-28T03:22:20.824Z,90.80
2023-03-28T03:24:51.625Z,90.76
2023-03-28T03:27:20.694Z,90.71
2023-03-28T03:29:49.234Z,90.69
2023-03-28T03:32:17.586Z,90.64
2023-03-28T03:34:45.780Z,90.62
2023-03-28T03:37:14.372Z,90.57
2023-03-28T03:39:42.489Z,90.64
2023-03-28T03:42:13.647Z,90.70
2023-03-28T03:44:41.789Z,90.76
2023-03-28T03:47:10.007Z,90.75
2023-03-28T03:49:38.145Z,90.81
2023-03-28T03:52:06.781Z,90.94
2023-03-28T03:54:38.312Z,91.02
2023-03-28T03:57:06.533Z,91.10
2023-03-28T03:59:37.088Z,91.15
2023-03-28T04:02:05.478Z,91.17
2023-03-28T04:04:34.077Z,91.25
2023-03-28T04:07:02.531Z,91.31
2023-03-28T04:09:30.929Z,91.43
2023-03-28T04:11:59.346Z,91.47
2023-03-28T04:14:27.614Z,91.72
2023-03-28T04:16:57.802Z,91.90
2023-03-28T04:19:27.499Z,91.98
2023-03-28T04:21:57.376Z,92.10
2023-03-28T04:24:26.149Z,92.21
2023-03-28T04:26:56.156Z,92.23
2023-03-28T04:29:30.859Z,92.28
2023-03-28T04:32:00.405Z,92.26
2023-03-28T04:34:30.906Z,92.28
2023-03-28T04:37:01.717Z,92.22
2023-03-28T04:39:31.040Z,92.28
2023-03-28T04:42:01.966Z,92.37
2023-03-28T04:44:30.563Z,92.39
2023-03-28T04:47:00.365Z,92.36
2023-03-28T04:49:30.984Z,92.45
2023-03-28T04:51:59.483Z,92.48
2023-03-28T04:54:28.036Z,92.44
2023-03-28T04:56:56.288Z,92.50
2023-03-28T04:59:24.366Z,92.48
2023-03-28T05:01:52.781Z,92.48
2023-03-28T05:04:23.684Z,93.03
2023-03-28T05:06:53.142Z,93.27
2023-03-28T05:09:22.603Z,93.64
2023-03-28T05:11:52.329Z,93.62
2023-03-28T05:14:20.802Z,93.54
2023-03-28T05:16:48.884Z,93.77
2023-03-28T05:19:18.183Z,93.60
2023-03-28T05:21:47.876Z,93.44
2023-03-28T05:24:16.376Z,93.10
2023-03-28T05:26:44.985Z,93.02
2023-03-28T05:29:13.298Z,92.67
2023-03-28T05:31:41.466Z,92.52
2023-03-28T05:34:09.564Z,92.68
2023-03-28T05:36:38.300Z,92.39
2023-03-28T05:39:09.491Z,91.87
2023-03-28T05:41:37.938Z,91.51
2023-03-28T05:44:13.021Z,91.32
2023-03-28T05:46:44.566Z,91.20
2023-03-28T05:49:13.045Z,91.14
2023-03-28T05:51:54.061Z,91.06
2023-03-28T05:54:23.901Z,91.15
2023-03-28T05:56:53.756Z,91.31
2023-03-28T05:59:24.919Z,91.20
2023-03-28T06:01:55.853Z,90.86
2023-03-28T06:04:28.239Z,90.03
2023-03-28T06:06:58.010Z,88.68
2023-03-28T06:09:31.448Z,87.55
2023-03-28T06:12:01.628Z,86.39
2023-03-28T06:14:31.975Z,85.27
2023-03-28T06:17:06.821Z,84.37
2023-03-28T06:19:38.825Z,83.38
2023-03-28T06:22:09.577Z,82.41
2023-03-28T06:24:42.404Z,81.90
2023-03-28T06:27:11.661Z,81.54
2023-03-28T06:29:42.839Z,81.33
2023-03-28T06:32:12.634Z,80.99
2023-03-28T06:34:42.338Z,80.45
2023-03-28T06:37:11.443Z,79.53
2023-03-28T06:39:43.648Z,78.93
2023-03-28T06:42:12.069Z,78.06
2023-03-28T06:44:40.847Z,76.67
2023-03-28T06:47:10.322Z,75.77
2023-03-28T06:49:39.277Z,75.14
2023-03-28T06:52:08.400Z,75.71
2023-03-28T06:54:36.498Z,74.43
2023-03-28T06:57:06.437Z,73.95
2023-03-28T06:59:35.485Z,73.52
2023-03-28T07:02:06.415Z,71.86
2023-03-28T07:04:37.418Z,72.07
2023-03-28T07:07:05.934Z,71.87
2023-03-28T07:09:35.648Z,70.18
2023-03-28T07:12:07.604Z,69.97
2023-03-28T07:14:37.192Z,67.90
2023-03-28T07:17:06.718Z,67.27
2023-03-28T07:19:35.070Z,65.14
2023-03-28T07:22:04.271Z,65.20
2023-03-28T07:24:32.473Z,64.00
2023-03-28T07:27:14.998Z,63.72
2023-03-28T07:29:47.245Z,62.71
2023-03-28T07:32:16.391Z,61.81
2023-03-28T07:34:47.417Z,59.71
2023-03-28T07:37:15.981Z,59.09
2023-03-28T07:39:48.154Z,56.58
2023-03-28T07:42:16.918Z,56.76
2023-03-28T07:44:50.307Z,57.89
2023-03-28T07:47:23.229Z,56.43
2023-03-28T07:49:51.263Z,55.88
2023-03-28T07:52:20.776Z,55.17
2023-03-28T07:54:50.320Z,56.80
2023-03-28T07:57:18.389Z,59.65
2023-03-28T07:59:51.813Z,54.85
2023-03-28T08:02:21.872Z,54.51
2023-03-28T08:04:53.634Z,56.26
2023-03-28T08:07:26.186Z,54.17
2023-03-28T08:09:59.057Z,51.99
2023-03-28T08:12:28.313Z,53.24
2023-03-28T08:14:58.635Z,53.32
2023-03-28T08:17:27.555Z,52.45
2023-03-28T08:19:57.241Z,54.50
2023-03-28T08:22:26.609Z,52.87
2023-03-28T08:24:57.080Z,52.61
2023-03-28T08:27:28.312Z,50.28
2023-03-28T08:30:00.056Z,49.04
2023-03-28T08:32:28.291Z,49.13
2023-03-28T08:34:57.968Z,51.09
2023-03-28T08:37:26.150Z,52.29
2023-03-28T08:39:58.988Z,51.18
2023-03-28T08:42:43.803Z,48.23
2023-03-28T08:45:42.201Z,49.50
2023-03-28T08:48:23.224Z,50.44
2023-03-28T08:50:54.815Z,51.96
2023-03-28T08:53:31.736Z,42.84
2023-03-28T08:56:12.230Z,45.47
2023-03-28T08:58:47.437Z,44.38
2023-03-28T09:01:21.124Z,43.51
2023-03-28T09:03:50.211Z,45.46
2023-03-28T09:06:27.457Z,47.23
2023-03-28T09:09:05.708Z,46.96
2023-03-28T09:11:42.786Z,45.75
2023-03-28T09:14:21.433Z,43.34
2023-03-28T09:17:03.291Z,43.33
2023-03-28T09:19:48.232Z,45.64
2023-03-28T09:22:28.004Z,43.71
2023-03-28T09:25:02.301Z,44.52
2023-03-28T09:27:48.531Z,42.78
2023-03-28T09:30:22.262Z,44.35
2023-03-28T09:32:55.555Z,43.38
2023-03-28T09:35:24.271Z,43.35
2023-03-28T09:37:55.907Z,42.23
2023-03-28T09:40:25.465Z,43.07
2023-03-28T09:43:05.130Z,45.38
2023-03-28T09:45:42.298Z,44.77
2023-03-28T09:48:22.060Z,40.98
2023-03-28T09:50:50.689Z,41.26
2023-03-28T09:53:26.370Z,41.20
2023-03-28T09:56:04.263Z,40.44
2023-03-28T09:58:49.882Z,39.98
2023-03-28T10:01:28.517Z,39.31
2023-03-28T10:03:58.478Z,40.76
2023-03-28T10:06:29.092Z,39.48
2023-03-28T10:09:19.495Z,38.24
2023-03-28T10:11:50.220Z,40.07
2023-03-28T10:14:33.504Z,40.01
2023-03-28T10:17:03.956Z,41.55
2023-03-28T10:19:38.158Z,42.33
2023-03-28T10:22:08.889Z,39.36
2023-03-28T10:24:39.809Z,39.90
2023-03-28T10:27:13.276Z,39.63
2023-03-28T10:29:42.728Z,40.30
2023-03-28T10:32:13.854Z,42.47
2023-03-28T10:34:44.848Z,44.55
2023-03-28T10:37:23.740Z,38.91
2023-03-28T10:40:01.807Z,40.25
2023-03-28T10:42:41.042Z,42.56
2023-03-28T10:45:22.134Z,38.76
2023-03-28T10:47:53.165Z,42.94
2023-03-28T10:50:28.926Z,42.41
2023-03-28T10:53:10.659Z,42.45
2023-03-28T10:55:41.005Z,45.02
2023-03-28T10:58:13.657Z,45.22
2023-03-28T11:00:44.198Z,42.56
2023-03-28T11:03:18.670Z,47.76
2023-03-28T11:06:07.999Z,43.84
2023-03-28T11:08:43.992Z,44.60
2023-03-28T11:11:22.150Z,45.05
2023-03-28T11:13:54.971Z,45.19
2023-03-28T11:16:33.985Z,38.65
2023-03-28T11:19:11.399Z,38.61
2023-03-28T11:21:45.678Z,37.72
2023-03-28T11:24:24.116Z,38.95
2023-03-28T11:27:12.414Z,40.14
2023-03-28T11:29:49.204Z,41.98
2023-03-28T11:32:21.377Z,39.14
2023-03-28T11:35:00.749Z,41.23
2023-03-28T11:37:37.752Z,42.78
2023-03-28T11:40:15.153Z,42.61
2023-03-28T11:42:47.846Z,42.83
2023-03-28T11:45:37.511Z,42.42
2023-03-28T11:48:24.062Z,42.41
2023-03-28T11:51:01.221Z,44.07
2023-03-28T11:53:33.775Z,43.28
2023-03-28T11:56:08.435Z,43.34
2023-03-28T11:58:41.098Z,42.87
2023-03-28T12:01:11.143Z,45.23
2023-03-28T12:03:48.213Z,44.01
2023-03-28T12:06:22.125Z,42.85
2023-03-28T12:08:56.450Z,44.24
2023-03-28T12:11:28.300Z,44.98
2023-03-28T12:14:11.536Z,45.06
2023-03-28T12:16:45.123Z,43.00
2023-03-28T12:19:19.459Z,42.53
2023-03-28T12:21:52.812Z,41.31
2023-03-28T12:24:27.869Z,39.27
2023-03-28T12:27:04.050Z,42.65
2023-03-28T12:29:37.335Z,41.75
2023-03-28T12:32:23.031Z,44.42
2023-03-28T12:34:56.984Z,42.32
2023-03-28T12:37:30.069Z,43.39
2023-03-28T12:40:13.983Z,44.27
2023-03-28T12:42:43.066Z,44.70
2023-03-28T12:45:16.368Z,43.79
2023-03-28T12:47:46.314Z,44.15
2023-03-28T12:50:23.546Z,46.26
2023-03-28T12:52:53.757Z,44.40
2023-03-28T12:55:47.616Z,45.16
2023-03-28T12:58:27.697Z,44.95
2023-03-28T13:01:22.336Z,45.42
2023-03-28T13:04:01.438Z,44.45
2023-03-28T13:06:42.137Z,44.90
2023-03-28T13:09:22.641Z,46.07
2023-03-28T13:11:57.797Z,46.18
2023-03-28T13:14:33.394Z,46.45
2023-03-28T13:17:03.028Z,46.27
2023-03-28T13:19:58.991Z,47.35
2023-03-28T13:22:31.288Z,45.62
2023-03-28T13:25:27.409Z,47.43
2023-03-28T13:27:58.952Z,46.17
2023-03-28T13:30:31.209Z,47.12
2023-03-28T13:33:04.187Z,45.33
2023-03-28T13:36:12.636Z,47.09
2023-03-28T13:38:48.835Z,45.01
2023-03-28T13:41:55.420Z,45.81
2023-03-28T13:44:31.065Z,46.25
2023-03-28T13:47:00.558Z,47.07
2023-03-28T13:49:48.213Z,45.65
2023-03-28T13:52:21.277Z,47.88
2023-03-28T13:54:54.821Z,47.97
2023-03-28T13:57:26.070Z,46.73
2023-03-28T13:59:58.444Z,46.45
2023-03-28T14:02:37.693Z,45.75
2023-03-28T14:05:20.132Z,44.87
2023-03-28T14:07:48.567Z,46.20
2023-03-28T14:10:28.786Z,47.50
2023-03-28T14:13:01.005Z,47.14
2023-03-28T14:15:32.148Z,47.65
2023-03-28T14:18:01.866Z,47.82
2023-03-28T14:20:30.250Z,47.57
2023-03-28T14:23:01.254Z,47.04
2023-03-28T14:25:30.824Z,47.81
2023-03-28T14:28:08.516Z,47.42
2023-03-28T14:30:42.283Z,48.02
2023-03-28T14:33:18.857Z,48.03
2023-03-28T14:35:57.516Z,48.65
2023-03-28T14:38:32.126Z,48.73
2023-03-28T14:41:08.843Z,47.95
2023-03-28T14:43:39.254Z,48.19
2023-03-28T14:46:10.760Z,48.76
2023-03-28T14:48:39.160Z,46.65
2023-03-28T14:51:08.835Z,46.97
2023-03-28T14:53:39.274Z,47.54
2023-03-28T14:56:10.473Z,47.22
2023-03-28T14:58:42.969Z,48.91
2023-03-28T15:01:21.955Z,47.49
2023-03-28T15:03:53.275Z,45.70
2023-03-28T15:06:22.260Z,45.81
2023-03-28T15:08:51.514Z,46.01
2023-03-28T15:11:23.434Z,46.29
2023-03-28T15:13:52.933Z,45.81
2023-03-28T15:16:24.375Z,46.16
2023-03-28T15:19:00.345Z,46.26
2023-03-28T15:21:28.566Z,46.53
2023-03-28T15:23:59.956Z,47.48
2023-03-28T15:26:31.797Z,48.67
2023-03-28T15:29:00.249Z,48.82
2023-03-28T15:31:31.636Z,48.27
2023-03-28T15:34:00.072Z,47.62
2023-03-28T15:36:32.239Z,47.22
2023-03-28T15:39:02.772Z,47.91
2023-03-28T15:41:46.595Z,47.55
2023-03-28T15:44:27.509Z,50.40
2023-03-28T15:47:06.909Z,49.11
2023-03-28T15:49:39.555Z,48.75
2023-03-28T15:52:17.415Z,48.11
2023-03-28T15:54:52.397Z,49.69
2023-03-28T15:57:23.894Z,49.10
2023-03-28T15:59:55.396Z,49.76
2023-03-28T16:02:33.659Z,50.12
2023-03-28T16:05:03.850Z,49.66
2023-03-28T16:07:37.220Z,49.73
2023-03-28T16:10:10.979Z,51.00
2023-03-28T16:12:39.112Z,49.88
2023-03-28T16:15:13.579Z,50.79
2023-03-28T16:17:44.875Z,49.82
2023-03-28T16:20:16.169Z,49.97
2023-03-28T16:22:44.653Z,50.50
2023-03-28T16:25:17.317Z,50.70
2023-03-28T16:27:45.813Z,51.40
2023-03-28T16:30:20.241Z,52.42
2023-03-28T16:32:53.237Z,51.37
2023-03-28T16:35:22.784Z,52.98
2023-03-28T16:37:51.375Z,51.81
2023-03-28T16:40:19.946Z,52.71
2023-03-28T16:42:47.933Z,52.57
2023-03-28T16:45:18.016Z,52.48
2023-03-28T16:47:46.020Z,52.62
2023-03-28T16:50:16.486Z,53.02
2023-03-28T16:52:44.679Z,53.63
2023-03-28T16:55:15.905Z,54.61
2023-03-28T16:57:44.843Z,54.71
2023-03-28T17:00:20.918Z,54.88
2023-03-28T17:02:49.878Z,55.32
2023-03-28T17:05:24.948Z,55.60
2023-03-28T17:07:53.050Z,55.81
2023-03-28T17:10:21.796Z,55.85
2023-03-28T17:12:54.446Z,56.11
2023-03-28T17:15:25.022Z,56.39
2023-03-28T17:17:56.653Z,57.98
2023-03-28T17:20:29.243Z,58.33
2023-03-28T17:22:57.615Z,60.92
2023-03-28T17:25:26.593Z,59.59
2023-03-28T17:27:57.876Z,59.53
2023-03-28T17:30:28.140Z,60.87
2023-03-28T17:32:57.576Z,60.44
2023-03-28T17:35:38.196Z,61.27
2023-03-28T17:38:10.441Z,61.95
2023-03-28T17:40:41.149Z,62.66
2023-03-28T17:43:11.793Z,63.18
2023-03-28T17:45:40.888Z,63.58
2023-03-28T17:48:10.260Z,63.97
2023-03-28T17:50:40.221Z,65.60
2023-03-28T17:53:08.353Z,65.92
2023-03-28T17:55:37.094Z,65.46
2023-03-28T17:58:05.348Z,65.65
2023-03-28T18:00:33.510Z,66.30
2023-03-28T18:03:01.659Z,65.58
2023-03-28T18:05:30.482Z,65.39
2023-03-28T18:08:00.293Z,65.62
2023-03-28T18:10:31.630Z,65.58
2023-03-28T18:13:02.582Z,65.69
2023-03-28T18:15:31.353Z,66.02
2023-03-28T18:18:01.804Z,66.05
2023-03-28T18:20:31.151Z,66.34
2023-03-28T18:23:00.985Z,66.48
2023-03-28T18:25:32.368Z,66.96
2023-03-28T18:28:05.528Z,67.42
2023-03-28T18:30:33.809Z,67.54
2023-03-28T18:33:02.119Z,67.75
2023-03-28T18:35:30.891Z,67.68
2023-03-28T18:38:00.487Z,67.72
2023-03-28T18:40:28.906Z,68.02
2023-03-28T18:42:58.858Z,68.01
2023-03-28T18:45:29.348Z,67.92
2023-03-28T18:47:57.953Z,67.95
2023-03-28T18:50:27.224Z,68.09
2023-03-28T18:52:55.338Z,68.27
2023-03-28T18:55:24.853Z,68.65
2023-03-28T18:57:58.213Z,69.03
2023-03-28T19:00:32.323Z,69.27
2023-03-28T19:03:03.016Z,69.29
2023-03-28T19:05:35.441Z,69.40
2023-03-28T19:08:04.104Z,69.56
2023-03-28T19:10:36.774Z,69.69
2023-03-28T19:13:04.796Z,69.92
2023-03-28T19:15:33.597Z,69.70
2023-03-28T19:18:03.001Z,69.91
2023-03-28T19:20:32.249Z,69.83
2023-03-28T19:23:01.697Z,69.83
2023-03-28T19:25:30.187Z,70.15
2023-03-28T19:27:59.898Z,70.35
2023-03-28T19:30:30.446Z,70.52
2023-03-28T19:32:58.829Z,70.52
2023-03-28T19:35:28.088Z,70.80
2023-03-28T19:37:58.422Z,71.07
2023-03-28T19:40:27.686Z,71.46
2023-03-28T19:42:58.661Z,71.40
2023-03-28T19:45:29.344Z,71.37
2023-03-28T19:47:58.041Z,71.48
2023-03-28T19:50:28.764Z,71.90
2023-03-28T19:52:57.150Z,71.93
2023-03-28T19:55:26.657Z,72.54
2023-03-28T19:57:57.417Z,73.32
2023-03-28T20:00:28.724Z,73.51
2023-03-28T20:02:58.520Z,73.51
2023-03-28T20:05:27.574Z,73.72
2023-03-28T20:07:56.741Z,73.43
2023-03-28T20:10:24.910Z,73.28
2023-03-28T20:12:55.832Z,73.46
2023-03-28T20:15:25.357Z,73.70
2023-03-28T20:17:53.966Z,74.17
2023-03-28T20:20:24.966Z,74.62
2023-03-28T20:23:00.068Z,75.26
2023-03-28T20:25:31.585Z,75.67
2023-03-28T20:27:59.987Z,76.02
2023-03-28T20:30:31.636Z,76.26
2023-03-28T20:33:02.146Z,76.37
2023-03-28T20:35:34.326Z,76.63
2023-03-28T20:38:02.859Z,76.94
2023-03-28T20:40:31.164Z,77.27
2023-03-28T20:43:02.130Z,77.69
2023-03-28T20:45:30.167Z,77.90
2023-03-28T20:48:06.358Z,78.29
2023-03-28T20:50:37.810Z,78.61
2023-03-28T20:53:07.893Z,78.87
2023-03-28T20:55:36.653Z,79.17
2023-03-28T20:58:04.955Z,79.62
2023-03-28T21:00:34.061Z,79.77
2023-03-28T21:03:03.733Z,80.11
2023-03-28T21:05:33.304Z,79.71
2023-03-28T21:08:04.378Z,79.42
2023-03-28T21:10:33.367Z,79.45
2023-03-28T21:13:01.479Z,79.55
2023-03-28T21:15:30.613Z,79.39
2023-03-28T21:17:59.377Z,79.34
2023-03-28T21:20:27.768Z,79.35
2023-03-28T21:22:55.868Z,79.10
2023-03-28T21:25:25.316Z,78.86
2023-03-28T21:27:53.398Z,78.58
2023-03-28T21:30:22.333Z,78.51
2023-03-28T21:32:50.893Z,78.24
2023-03-28T21:35:20.039Z,78.10
2023-03-28T21:37:49.571Z,77.96
2023-03-28T21:40:18.095Z,77.83
2023-03-28T21:42:50.269Z,77.54
2023-03-28T21:45:18.490Z,77.38
2023-03-28T21:47:47.555Z,77.31
2023-03-28T21:50:19.066Z,77.38
2023-03-28T21:52:47.265Z,77.38
2023-03-28T21:55:16.690Z,77.50
2023-03-28T21:57:45.017Z,77.41
2023-03-28T22:00:17.887Z,77.62
2023-03-28T22:02:47.290Z,77.76
2023-03-28T22:05:28.644Z,77.85
2023-03-28T22:07:58.145Z,77.85
2023-03-28T22:10:29.581Z,77.95
2023-03-28T22:12:59.868Z,78.01
2023-03-28T22:15:31.516Z,78.10
2023-03-28T22:17:59.769Z,78.07
2023-03-28T22:20:28.984Z,78.18
2023-03-28T22:23:01.278Z,78.23
2023-03-28T22:25:35.686Z,78.42
2023-03-28T22:28:06.088Z,79.10
2023-03-28T22:30:36.690Z,78.82
2023-03-28T22:33:05.542Z,78.84
2023-03-28T22:35:34.963Z,78.84
2023-03-28T22:38:03.537Z,79.06
2023-03-28T22:40:31.947Z,79.13
2023-03-28T22:43:00.212Z,79.15
2023-03-28T22:45:28.941Z,79.21
2023-03-28T22:48:01.825Z,79.19
2023-03-28T22:50:33.552Z,79.36
2023-03-28T22:53:02.527Z,79.51
2023-03-28T22:55:30.780Z,79.59
2023-03-28T22:57:58.913Z,79.79
2023-03-28T23:00:27.170Z,80.00
2023-03-28T23:02:56.202Z,80.01
2023-03-28T23:05:26.111Z,80.15
2023-03-28T23:07:54.931Z,80.20
2023-03-28T23:10:24.848Z,80.40
2023-03-28T23:12:53.976Z,80.68
2023-03-28T23:15:22.010Z,80.57
2023-03-28T23:17:50.405Z,80.45
2023-03-28T23:20:19.810Z,80.26
2023-03-28T23:22:49.979Z,80.19
2023-03-28T23:25:20.120Z,80.24
2023-03-28T23:27:54.096Z,80.18
2023-03-28T23:30:22.164Z,80.30
2023-03-28T23:32:50.710Z,80.46
2023-03-28T23:35:19.519Z,80.72
2023-03-28T23:37:53.101Z,80.82
2023-03-28T23:40:24.445Z,81.12
2023-03-28T23:42:54.037Z,81.39
2023-03-28T23:45:23.734Z,81.57
2023-03-28T23:47:52.879Z,81.74
2023-03-28T23:50:21.016Z,81.73
2023-03-28T23:52:50.448Z,81.63
2023-03-28T23:55:18.530Z,81.58
2023-03-28T23:57:47.245Z,81.69
